Airfield :
LOGIN :

Register | Disclaimer

   EN    FR    IT 

 










Legend :    VFR   Marginal VFR   IFR   Intensive IFR   Very Intensive IFR
Visi :
Ceiling :
>= 8 km
>= 3000ft
5 to 8 km
1000 to 3000 ft
1500m to 5 km
500 to 1000 ft
800 to 1500m
200 to 500 ft
< 800m
< 200 ft
Symbols :   Thunderstorms  Fog  Heavy snow  Heavy precipitations  Wind > 20 kt
SIGMETs :     Misc.  Thunderstorms  Icing  Turbulence  Mountain Waves  Volcanic Ashes






- Airport Elevation : 3 ft
- IATA code : LWR


EHLW - Leuuwarden Air Base

CURRENT METAR :
  • 050225Z AUTO VRB05KT 9999 OVC120 15/12 Q1011 BLU

EXPIRED METARs :
  • 050155Z AUTO 09007KT 010V170 9999 BKN140 15/12 Q1011 BLU
  • 050125Z AUTO 09007KT 010V170 9999 SCT068 SCT075 OVC130 15/12 Q1012 BLU
  • 050055Z AUTO VRB07KT 9999 OVC130 15/12 Q1012 BLU
  • 050025Z AUTO VRB06KT 9999 FEW069 BKN110 15/12 Q1012 BLU
  • 042355Z AUTO VRB07KT 9999 BKN069 OVC076 16/12 Q1012 BLU

TAF TAF EHLW
Valid from the 05 at 01:00 until the 05 at 13:00 UTC


050038Z 0501/0513 07006KT CAVOK
TEMPO 0501/0507 VRB03KT 4000 BR
PROB30
TEMPO 0501/0507 1500 BR MIFG



MET'MAP, your aeronautical weather chart ! - Copyright ORBIFLY December 2007 - Disclaimer

ORBIFLY MET'MAP TEAM :

Programming & Development : Alexandra Zaïnal
Concept & original design : Baudouin d'Aumeries
Assistance for programming : Marc-Olivier Méhu
Technical & hardware support : Manuel Goepfert

Contact : metmap@orbifly.com




SOURCES & CREDITS :

   NOAA